createdAt,value
2023-03-13T00:01:37.492Z,16.50
2023-03-13T00:04:06.655Z,16.50
2023-03-13T00:06:37.893Z,16.50
2023-03-13T00:09:09.201Z,16.50
2023-03-13T00:11:38.554Z,16.50
2023-03-13T00:14:09.581Z,16.50
2023-03-13T00:16:39.762Z,16.50
2023-03-13T00:19:10.015Z,16.50
2023-03-13T00:21:41.146Z,16.50
2023-03-13T00:24:12.611Z,16.50
2023-03-13T00:26:41.381Z,16.50
2023-03-13T00:29:11.433Z,16.50
2023-03-13T00:31:40.241Z,16.50
2023-03-13T00:34:08.945Z,16.50
2023-03-13T00:36:39.286Z,16.50
2023-03-13T00:39:08.453Z,16.50
2023-03-13T00:41:38.948Z,16.50
2023-03-13T00:44:08.295Z,16.50
2023-03-13T00:46:38.948Z,16.50
2023-03-13T00:49:08.027Z,16.60
2023-03-13T00:51:36.659Z,16.60
2023-03-13T00:54:05.602Z,16.60
2023-03-13T00:56:35.124Z,16.60
2023-03-13T00:59:03.850Z,16.60
2023-03-13T01:01:34.270Z,16.60
2023-03-13T01:04:07.694Z,16.60
2023-03-13T01:06:38.891Z,16.60
2023-03-13T01:09:08.919Z,16.60
2023-03-13T01:11:41.043Z,16.60
2023-03-13T01:14:13.172Z,16.60
2023-03-13T01:16:42.759Z,16.60
2023-03-13T01:19:15.336Z,16.60
2023-03-13T01:21:45.749Z,16.60
2023-03-13T01:24:14.803Z,16.60
2023-03-13T01:26:45.459Z,16.60
2023-03-13T01:29:14.388Z,16.60
2023-03-13T01:31:43.170Z,16.60
2023-03-13T01:34:13.390Z,16.70
2023-03-13T01:36:42.190Z,16.60
2023-03-13T01:39:10.987Z,16.60
2023-03-13T01:41:40.170Z,16.70
2023-03-13T01:44:23.218Z,16.70
2023-03-13T01:46:52.414Z,16.70
2023-03-13T01:49:33.347Z,16.70
2023-03-13T01:52:12.156Z,16.70
2023-03-13T01:54:54.460Z,16.70
2023-03-13T01:57:28.875Z,16.70
2023-03-13T02:00:05.153Z,16.70
2023-03-13T02:02:45.866Z,16.70
2023-03-13T02:05:17.915Z,16.70
2023-03-13T02:07:52.798Z,16.70
2023-03-13T02:10:22.687Z,16.70
2023-03-13T02:12:51.782Z,16.70
2023-03-13T02:15:23.765Z,16.70
2023-03-13T02:17:54.694Z,16.70
2023-03-13T02:20:25.559Z,16.70
2023-03-13T02:23:01.116Z,16.70
2023-03-13T02:25:51.372Z,16.70
2023-03-13T02:28:28.816Z,16.70
2023-03-13T02:30:58.874Z,16.70
2023-03-13T02:33:32.086Z,16.70
2023-03-13T02:36:02.372Z,16.70
2023-03-13T02:38:37.211Z,16.70
2023-03-13T02:41:08.623Z,16.70
2023-03-13T02:43:39.011Z,16.70
2023-03-13T02:46:14.325Z,16.70
2023-03-13T02:48:52.007Z,16.70
2023-03-13T02:51:28.410Z,16.70
2023-03-13T02:54:03.397Z,16.70
2023-03-13T02:56:37.694Z,16.70
2023-03-13T02:59:07.822Z,16.70
2023-03-13T03:01:40.241Z,16.70
2023-03-13T03:04:08.993Z,16.70
2023-03-13T03:06:37.632Z,16.70
2023-03-13T03:09:07.318Z,16.70
2023-03-13T03:11:39.757Z,16.70
2023-03-13T03:14:14.222Z,16.70
2023-03-13T03:16:47.062Z,16.70
2023-03-13T03:19:16.323Z,16.70
2023-03-13T03:21:44.988Z,16.70
2023-03-13T03:24:13.673Z,16.70
2023-03-13T03:26:43.747Z,16.70
2023-03-13T03:29:20.512Z,16.70
2023-03-13T03:31:52.448Z,16.70
2023-03-13T03:34:21.602Z,16.70
2023-03-13T03:36:50.537Z,16.70
2023-03-13T03:39:19.134Z,16.70
2023-03-13T03:41:49.686Z,16.70
2023-03-13T03:44:18.582Z,16.70
2023-03-13T03:47:06.181Z,16.70
2023-03-13T03:49:39.471Z,16.70
2023-03-13T03:52:09.062Z,16.70
2023-03-13T03:54:41.255Z,16.70
2023-03-13T03:57:11.474Z,16.70
2023-03-13T03:59:41.698Z,16.70
2023-03-13T04:02:11.552Z,16.70
2023-03-13T04:04:42.302Z,16.70
2023-03-13T04:07:14.610Z,16.70
2023-03-13T04:09:43.402Z,16.70
2023-03-13T04:12:20.484Z,16.70
2023-03-13T04:14:50.122Z,16.70
2023-03-13T04:17:18.885Z,16.70
2023-03-13T04:19:48.747Z,16.70
2023-03-13T04:22:17.621Z,16.70
2023-03-13T04:24:51.732Z,16.70
2023-03-13T04:27:25.581Z,16.70
2023-03-13T04:29:54.543Z,16.70
2023-03-13T04:32:41.969Z,16.70
2023-03-13T04:35:11.110Z,16.70
2023-03-13T04:37:58.744Z,16.70
2023-03-13T04:40:48.003Z,16.70
2023-03-13T04:43:33.057Z,16.70
2023-03-13T04:46:11.534Z,16.70
2023-03-13T04:49:00.187Z,16.70
2023-03-13T04:52:04.558Z,16.70
2023-03-13T04:54:51.216Z,16.70
2023-03-13T04:57:40.178Z,16.70
2023-03-13T05:00:41.894Z,16.70
2023-03-13T05:03:32.268Z,16.70
2023-03-13T05:06:29.831Z,16.70
2023-03-13T05:09:07.504Z,16.70
2023-03-13T05:12:02.158Z,16.70
2023-03-13T05:14:48.086Z,16.70
2023-03-13T05:17:44.643Z,16.70
2023-03-13T05:20:25.279Z,16.70
2023-03-13T05:23:06.999Z,16.70
2023-03-13T05:25:35.640Z,16.70
2023-03-13T05:28:04.998Z,16.70
2023-03-13T05:30:54.542Z,16.70
2023-03-13T05:33:47.784Z,16.70
2023-03-13T05:36:42.630Z,16.70
2023-03-13T05:39:20.237Z,16.70
2023-03-13T05:41:48.895Z,16.70
2023-03-13T05:44:17.735Z,16.70
2023-03-13T05:47:21.720Z,16.70
2023-03-13T05:50:15.982Z,16.70
2023-03-13T05:53:06.564Z,16.80
2023-03-13T05:55:53.550Z,16.80
2023-03-13T05:58:42.420Z,16.80
2023-03-13T06:01:13.336Z,16.80
2023-03-13T06:03:51.376Z,16.80
2023-03-13T06:06:22.399Z,16.80
2023-03-13T06:08:54.063Z,16.80
2023-03-13T06:11:24.203Z,16.80
2023-03-13T06:13:53.337Z,16.80
2023-03-13T06:16:35.983Z,16.80
2023-03-13T06:19:19.865Z,16.80
2023-03-13T06:21:49.965Z,16.80
2023-03-13T06:24:19.145Z,16.80
2023-03-13T06:26:50.483Z,16.80
2023-03-13T06:29:20.036Z,16.80
2023-03-13T06:31:48.833Z,16.90
2023-03-13T06:34:17.915Z,16.90
2023-03-13T06:36:46.610Z,16.90
2023-03-13T06:39:16.618Z,16.90
2023-03-13T06:41:45.218Z,16.90
2023-03-13T06:44:16.521Z,16.90
2023-03-13T06:46:45.266Z,16.90
2023-03-13T06:49:13.882Z,16.90
2023-03-13T06:51:42.485Z,16.90
2023-03-13T06:54:11.090Z,16.90
2023-03-13T06:56:41.078Z,16.90
2023-03-13T06:59:09.649Z,17.00
2023-03-13T07:01:38.264Z,17.00
2023-03-13T07:04:07.082Z,17.00
2023-03-13T07:06:35.729Z,17.00
2023-03-13T07:09:05.153Z,17.00
2023-03-13T07:11:33.901Z,17.00
2023-03-13T07:14:15.641Z,17.00
2023-03-13T07:16:45.811Z,17.00
2023-03-13T07:19:15.361Z,17.00
2023-03-13T07:21:44.467Z,17.00
2023-03-13T07:24:13.191Z,17.00
2023-03-13T07:26:51.233Z,17.00
2023-03-13T07:29:28.529Z,17.10
2023-03-13T07:31:57.159Z,17.10
2023-03-13T07:34:26.013Z,17.10
2023-03-13T07:36:54.708Z,17.10
2023-03-13T07:39:23.626Z,17.10
2023-03-13T07:41:52.199Z,17.10
2023-03-13T07:44:20.948Z,17.10
2023-03-13T07:46:50.982Z,17.10
2023-03-13T07:49:19.587Z,17.10
2023-03-13T07:51:50.103Z,17.10
2023-03-13T07:54:18.861Z,17.10
2023-03-13T07:56:47.575Z,17.10
2023-03-13T07:59:16.205Z,17.20
2023-03-13T08:01:44.941Z,17.20
2023-03-13T08:04:15.930Z,17.20
2023-03-13T08:06:44.597Z,17.20
2023-03-13T08:09:13.456Z,17.20
2023-03-13T08:11:44.474Z,17.20
2023-03-13T08:14:13.126Z,17.20
2023-03-13T08:16:41.832Z,17.20
2023-03-13T08:19:11.705Z,17.20
2023-03-13T08:21:41.810Z,17.20
2023-03-13T08:24:13.079Z,17.20
2023-03-13T08:26:43.584Z,17.30
2023-03-13T08:29:14.930Z,17.30
2023-03-13T08:31:49.655Z,17.30
2023-03-13T08:34:19.556Z,17.30
2023-03-13T08:36:49.795Z,17.30
2023-03-13T08:39:21.054Z,17.30
2023-03-13T08:41:50.005Z,17.30
2023-03-13T08:44:21.141Z,17.30
2023-03-13T08:46:50.224Z,17.40
2023-03-13T08:49:19.831Z,17.40
2023-03-13T08:51:49.868Z,17.40
2023-03-13T08:54:18.542Z,17.40
2023-03-13T08:56:47.236Z,17.40
2023-03-13T08:59:16.370Z,17.40
2023-03-13T09:01:45.113Z,17.40
2023-03-13T09:04:13.887Z,17.40
2023-03-13T09:06:42.666Z,17.40
2023-03-13T09:09:14.374Z,17.50
2023-03-13T09:11:43.064Z,17.50
2023-03-13T09:14:12.373Z,17.50
2023-03-13T09:16:41.118Z,17.50
2023-03-13T09:19:09.754Z,17.50
2023-03-13T09:21:38.395Z,17.50
2023-03-13T09:24:08.025Z,17.50
2023-03-13T09:26:38.705Z,17.60
2023-03-13T09:29:07.376Z,17.60
2023-03-13T09:31:36.223Z,17.60
2023-03-13T09:34:05.325Z,17.70
2023-03-13T09:36:34.211Z,17.70
2023-03-13T09:39:02.953Z,17.70
2023-03-13T09:41:40.180Z,17.80
2023-03-13T09:44:16.358Z,17.80
2023-03-13T09:46:50.864Z,17.80
2023-03-13T09:49:31.740Z,17.80
2023-03-13T09:52:17.920Z,17.80
2023-03-13T09:54:53.555Z,17.90
2023-03-13T09:57:32.792Z,17.90
2023-03-13T10:00:09.991Z,17.90
2023-03-13T10:02:40.088Z,17.90
2023-03-13T10:05:16.774Z,18.00
2023-03-13T10:07:45.624Z,18.00
2023-03-13T10:10:18.155Z,18.00
2023-03-13T10:12:50.544Z,18.00
2023-03-13T10:15:36.444Z,18.00
2023-03-13T10:18:19.684Z,18.00
2023-03-13T10:20:51.390Z,18.00
2023-03-13T10:23:28.646Z,18.00
2023-03-13T10:25:57.357Z,18.10
2023-03-13T10:28:28.098Z,18.10
2023-03-13T10:31:07.096Z,18.10
2023-03-13T10:33:38.512Z,18.10
2023-03-13T10:36:11.044Z,18.10
2023-03-13T10:38:51.959Z,18.10
2023-03-13T10:41:27.844Z,18.20
2023-03-13T10:44:02.711Z,18.20
2023-03-13T10:46:33.567Z,18.20
2023-03-13T10:49:04.788Z,18.20
2023-03-13T10:51:39.300Z,18.20
2023-03-13T10:54:17.670Z,18.30
2023-03-13T10:56:46.451Z,18.30
2023-03-13T10:59:28.570Z,18.30
2023-03-13T11:02:02.412Z,18.40
2023-03-13T11:04:34.344Z,18.40
2023-03-13T11:07:06.166Z,18.50
2023-03-13T11:09:34.941Z,18.50
2023-03-13T11:12:08.469Z,18.60
2023-03-13T11:14:38.950Z,18.60
2023-03-13T11:17:22.547Z,18.70
2023-03-13T11:20:08.143Z,18.70
2023-03-13T11:22:54.612Z,18.80
2023-03-13T11:25:33.250Z,18.80
2023-03-13T11:28:43.711Z,18.80
2023-03-13T11:31:19.832Z,18.90
2023-03-13T11:33:59.876Z,18.90
2023-03-13T11:36:36.911Z,18.90
2023-03-13T11:39:32.798Z,19.00
2023-03-13T11:42:07.988Z,19.00
2023-03-13T11:44:50.870Z,19.00
2023-03-13T11:47:37.402Z,19.10
2023-03-13T11:50:17.640Z,19.10
2023-03-13T11:53:02.823Z,19.20
2023-03-13T11:55:47.557Z,19.30
2023-03-13T11:58:54.343Z,19.40
2023-03-13T12:01:29.239Z,19.40
2023-03-13T12:04:06.446Z,19.50
2023-03-13T12:06:41.851Z,19.60
2023-03-13T12:09:16.607Z,19.60
2023-03-13T12:11:52.941Z,19.60
2023-03-13T12:14:27.838Z,19.70
2023-03-13T12:17:01.305Z,19.70
2023-03-13T12:19:37.492Z,19.70
2023-03-13T12:22:16.711Z,19.70
2023-03-13T12:24:51.566Z,19.70
2023-03-13T12:27:32.585Z,19.80
2023-03-13T12:30:07.732Z,19.80
2023-03-13T12:32:41.300Z,19.80
2023-03-13T12:35:23.237Z,19.80
2023-03-13T12:37:56.886Z,19.80
2023-03-13T12:40:32.583Z,19.80
2023-03-13T12:43:10.464Z,19.80
2023-03-13T12:45:50.915Z,19.80
2023-03-13T12:48:38.998Z,19.80
2023-03-13T12:51:31.696Z,19.70
2023-03-13T12:54:36.061Z,19.70
2023-03-13T12:57:26.741Z,19.70
2023-03-13T12:59:59.229Z,19.80
2023-03-13T13:02:31.660Z,19.80
2023-03-13T13:05:06.159Z,19.80
2023-03-13T13:07:38.711Z,19.70
2023-03-13T13:10:22.491Z,19.70
2023-03-13T13:13:30.118Z,19.70
2023-03-13T13:16:04.231Z,19.70
2023-03-13T13:18:34.650Z,19.70
2023-03-13T13:21:26.570Z,19.80
2023-03-13T13:24:42.128Z,19.70
2023-03-13T13:27:30.422Z,19.70
2023-03-13T13:30:01.707Z,19.70
2023-03-13T13:32:43.555Z,19.80
2023-03-13T13:35:36.633Z,19.70
2023-03-13T13:38:40.418Z,19.70
2023-03-13T13:41:35.560Z,19.70
2023-03-13T13:44:29.161Z,19.70
2023-03-13T13:47:01.949Z,19.70
2023-03-13T13:49:39.625Z,19.70
2023-03-13T13:52:35.459Z,19.70
2023-03-13T13:55:06.121Z,19.70
2023-03-13T13:57:38.784Z,19.70
2023-03-13T14:00:20.908Z,19.70
2023-03-13T14:02:52.975Z,19.70
2023-03-13T14:05:26.822Z,19.70
2023-03-13T14:08:05.909Z,19.70
2023-03-13T14:10:40.610Z,19.80
2023-03-13T14:13:17.865Z,19.80
2023-03-13T14:15:48.961Z,19.80
2023-03-13T14:18:23.792Z,19.80
2023-03-13T14:21:03.860Z,19.80
2023-03-13T14:23:44.509Z,19.80
2023-03-13T14:26:18.802Z,19.80
2023-03-13T14:28:51.383Z,19.90
2023-03-13T14:31:29.775Z,19.80
2023-03-13T14:34:00.401Z,19.90
2023-03-13T14:36:29.940Z,19.90
2023-03-13T14:39:01.216Z,19.90
2023-03-13T14:41:39.309Z,19.90
2023-03-13T14:44:20.637Z,19.90
2023-03-13T14:46:49.485Z,19.90
2023-03-13T14:49:21.971Z,19.90
2023-03-13T14:52:00.427Z,19.90
2023-03-13T14:54:32.789Z,20.00
2023-03-13T14:57:07.754Z,20.00
2023-03-13T14:59:37.979Z,20.00
2023-03-13T15:02:20.791Z,20.00
2023-03-13T15:04:57.423Z,20.00
2023-03-13T15:07:28.881Z,20.00
2023-03-13T15:09:57.721Z,20.10
2023-03-13T15:12:26.583Z,20.10
2023-03-13T15:14:59.522Z,20.10
2023-03-13T15:17:29.844Z,20.10
2023-03-13T15:20:00.347Z,20.10
2023-03-13T15:22:32.959Z,20.10
2023-03-13T15:25:08.596Z,20.10
2023-03-13T15:27:37.363Z,20.20
2023-03-13T15:30:09.399Z,20.20
2023-03-13T15:32:42.648Z,20.20
2023-03-13T15:35:27.342Z,20.20
2023-03-13T15:37:57.239Z,20.20
2023-03-13T15:40:27.446Z,20.20
2023-03-13T15:42:57.015Z,20.20
2023-03-13T15:45:27.125Z,20.20
2023-03-13T15:47:56.040Z,20.20
2023-03-13T15:50:29.849Z,20.20
2023-03-13T15:53:00.819Z,20.20
2023-03-13T15:55:31.356Z,20.20
2023-03-13T15:57:59.998Z,20.20
2023-03-13T16:00:30.266Z,20.20
2023-03-13T16:02:59.832Z,20.20
2023-03-13T16:05:29.234Z,20.20
2023-03-13T16:07:57.943Z,20.20
2023-03-13T16:10:29.447Z,20.20
2023-03-13T16:12:58.322Z,20.10
2023-03-13T16:15:27.078Z,20.10
2023-03-13T16:17:57.134Z,20.10
2023-03-13T16:20:26.557Z,20.00
2023-03-13T16:22:55.216Z,20.00
2023-03-13T16:25:25.280Z,20.00
2023-03-13T16:27:56.308Z,19.90
2023-03-13T16:30:28.564Z,19.90
2023-03-13T16:32:59.511Z,19.80
2023-03-13T16:35:30.214Z,19.70
2023-03-13T16:37:59.874Z,19.70
2023-03-13T16:40:31.847Z,19.70
2023-03-13T16:43:01.000Z,19.60
2023-03-13T16:45:29.814Z,19.60
2023-03-13T16:47:59.884Z,19.50
2023-03-13T16:50:33.873Z,19.50
2023-03-13T16:53:02.611Z,19.50
2023-03-13T16:55:36.391Z,19.40
2023-03-13T16:58:06.387Z,19.30
2023-03-13T17:00:38.192Z,19.30
2023-03-13T17:03:08.301Z,19.30
2023-03-13T17:05:37.188Z,19.20
2023-03-13T17:08:06.061Z,19.20
2023-03-13T17:10:35.933Z,19.20
2023-03-13T17:13:05.633Z,19.20
2023-03-13T17:15:37.264Z,19.10
2023-03-13T17:18:07.599Z,19.10
2023-03-13T17:20:36.566Z,19.10
2023-03-13T17:23:05.396Z,19.00
2023-03-13T17:25:35.012Z,19.00
2023-03-13T17:28:03.628Z,19.00
2023-03-13T17:30:32.840Z,19.00
2023-03-13T17:33:01.464Z,19.00
2023-03-13T17:35:31.461Z,18.90
2023-03-13T17:38:00.113Z,18.90
2023-03-13T17:40:32.403Z,18.90
2023-03-13T17:43:01.092Z,18.80
2023-03-13T17:45:30.953Z,18.80
2023-03-13T17:47:59.560Z,18.80
2023-03-13T17:50:30.726Z,18.80
2023-03-13T17:52:59.321Z,18.80
2023-03-13T17:55:27.985Z,18.70
2023-03-13T17:57:56.733Z,18.70
2023-03-13T18:00:31.886Z,18.70
2023-03-13T18:03:01.455Z,18.70
2023-03-13T18:05:31.493Z,18.70
2023-03-13T18:08:00.147Z,18.70
2023-03-13T18:10:31.176Z,18.70
2023-03-13T18:12:59.815Z,18.70
2023-03-13T18:15:29.182Z,18.70
2023-03-13T18:17:57.927Z,18.60
2023-03-13T18:20:31.764Z,18.60
2023-03-13T18:23:00.805Z,18.60
2023-03-13T18:25:30.582Z,18.60
2023-03-13T18:27:59.831Z,18.60
2023-03-13T18:30:29.819Z,18.60
2023-03-13T18:32:58.769Z,18.60
2023-03-13T18:35:27.493Z,18.60
2023-03-13T18:37:57.847Z,18.60
2023-03-13T18:40:30.136Z,18.60
2023-03-13T18:42:58.740Z,18.60
2023-03-13T18:45:28.587Z,18.60
2023-03-13T18:47:57.742Z,18.60
2023-03-13T18:50:29.414Z,18.60
2023-03-13T18:53:01.288Z,18.50
2023-03-13T18:55:32.463Z,18.50
2023-03-13T18:58:01.046Z,18.50
2023-03-13T19:00:32.239Z,18.50
2023-03-13T19:03:00.959Z,18.50
2023-03-13T19:05:29.826Z,18.50
2023-03-13T19:07:59.885Z,18.50
2023-03-13T19:10:31.354Z,18.50
2023-03-13T19:13:00.073Z,18.50
2023-03-13T19:15:31.761Z,18.50
2023-03-13T19:18:03.344Z,18.50
2023-03-13T19:20:32.429Z,18.50
2023-03-13T19:23:02.483Z,18.50
2023-03-13T19:25:33.593Z,18.50
2023-03-13T19:28:02.215Z,18.50
2023-03-13T19:30:30.879Z,18.50
2023-03-13T19:32:59.652Z,18.50
2023-03-13T19:35:28.452Z,18.50
2023-03-13T19:37:57.154Z,18.50
2023-03-13T19:40:29.076Z,18.50
2023-03-13T19:42:57.803Z,18.40
2023-03-13T19:45:27.728Z,18.40
2023-03-13T19:47:56.393Z,18.40
2023-03-13T19:50:27.857Z,18.40
2023-03-13T19:52:56.646Z,18.40
2023-03-13T19:55:26.727Z,18.40
2023-03-13T19:57:55.380Z,18.40
2023-03-13T20:00:27.993Z,18.40
2023-03-13T20:02:56.944Z,18.40
2023-03-13T20:05:27.968Z,18.30
2023-03-13T20:07:57.465Z,18.30
2023-03-13T20:10:27.883Z,18.30
2023-03-13T20:12:57.613Z,18.30
2023-03-13T20:15:26.366Z,18.30
2023-03-13T20:17:55.253Z,18.30
2023-03-13T20:20:24.044Z,18.30
2023-03-13T20:22:54.189Z,18.20
2023-03-13T20:25:24.828Z,18.20
2023-03-13T20:27:55.571Z,18.20
2023-03-13T20:30:24.281Z,18.20
2023-03-13T20:32:59.664Z,18.20
2023-03-13T20:35:29.661Z,18.20
2023-03-13T20:38:00.819Z,18.10
2023-03-13T20:40:29.545Z,18.10
2023-03-13T20:42:59.853Z,18.10
2023-03-13T20:45:34.135Z,18.10
2023-03-13T20:48:06.407Z,18.10
2023-03-13T20:50:35.755Z,18.10
2023-03-13T20:53:04.733Z,18.10
2023-03-13T20:55:33.356Z,18.00
2023-03-13T20:58:03.413Z,18.00
2023-03-13T21:00:32.383Z,18.00
2023-03-13T21:03:01.311Z,18.00
2023-03-13T21:05:30.136Z,17.90
2023-03-13T21:07:58.855Z,18.00
2023-03-13T21:10:27.556Z,18.00
2023-03-13T21:12:56.439Z,18.00
2023-03-13T21:15:26.484Z,17.90
2023-03-13T21:17:56.496Z,17.90
2023-03-13T21:20:26.556Z,17.90
2023-03-13T21:22:55.217Z,17.90
2023-03-13T21:25:24.690Z,17.90
2023-03-13T21:27:53.294Z,17.90
2023-03-13T21:30:23.172Z,17.90
2023-03-13T21:32:54.478Z,17.80
2023-03-13T21:35:23.466Z,17.80
2023-03-13T21:37:52.087Z,17.80
2023-03-13T21:40:20.915Z,17.80
2023-03-13T21:42:49.754Z,17.80
2023-03-13T21:45:18.611Z,17.80
2023-03-13T21:47:47.535Z,17.80
2023-03-13T21:52:46.708Z,17.80
2023-03-13T21:55:15.519Z,17.80
2023-03-13T21:57:44.121Z,17.80
2023-03-13T22:00:15.836Z,17.70
2023-03-13T22:02:44.591Z,17.70
2023-03-13T22:05:13.515Z,17.70
2023-03-13T22:07:43.562Z,17.70
2023-03-13T22:10:12.928Z,17.70
2023-03-13T22:12:41.675Z,17.70
2023-03-13T22:15:12.200Z,17.70
2023-03-13T22:17:40.854Z,17.70
2023-03-13T22:20:11.232Z,17.70
2023-03-13T22:22:39.870Z,17.70
2023-03-13T22:25:10.871Z,17.70
2023-03-13T22:27:39.528Z,17.70
2023-03-13T22:30:10.469Z,17.70
2023-03-13T22:32:39.591Z,17.70
2023-03-13T22:35:09.769Z,17.70
2023-03-13T22:37:38.557Z,17.70
2023-03-13T22:40:11.865Z,17.70
2023-03-13T22:42:40.519Z,17.70
2023-03-13T22:45:11.511Z,17.70
2023-03-13T22:47:40.197Z,17.70
2023-03-13T22:50:11.087Z,17.70
2023-03-13T22:52:40.222Z,17.70
2023-03-13T22:55:11.038Z,17.70
2023-03-13T22:57:39.651Z,17.70
2023-03-13T23:00:10.836Z,17.70
2023-03-13T23:02:56.660Z,17.60
2023-03-13T23:05:46.015Z,17.70
2023-03-13T23:08:37.403Z,17.70
2023-03-13T23:11:44.134Z,17.60
2023-03-13T23:14:31.715Z,17.60
2023-03-13T23:17:00.626Z,17.70
2023-03-13T23:19:29.281Z,17.60
2023-03-13T23:21:57.924Z,17.60
2023-03-13T23:24:26.683Z,17.60
2023-03-13T23:26:56.881Z,17.60
2023-03-13T23:29:25.583Z,17.60
2023-03-13T23:31:54.211Z,17.60
2023-03-13T23:34:23.007Z,17.60
2023-03-13T23:36:51.627Z,17.60
2023-03-13T23:39:20.207Z,17.60
2023-03-13T23:41:48.817Z,17.60
2023-03-13T23:44:18.795Z,17.60
2023-03-13T23:46:47.455Z,17.60
2023-03-13T23:49:16.894Z,17.60
2023-03-13T23:51:45.663Z,17.60
2023-03-13T23:54:14.218Z,17.60
2023-03-13T23:56:42.867Z,17.60
2023-03-13T23:59:11.521Z,17.60
